sensor_id;sensor_type;location;lat;lon;timestamp;temperature;humidity
12833;DHT22;6483;51.310;4.462;2022-09-09T00:02:27;13.60;99.90
12833;DHT22;6483;51.310;4.462;2022-09-09T00:05:14;13.50;99.90
12833;DHT22;6483;51.310;4.462;2022-09-09T00:07:49;13.50;99.90
12833;DHT22;6483;51.310;4.462;2022-09-09T00:10:33;13.50;99.90
12833;DHT22;6483;51.310;4.462;2022-09-09T00:13:46;13.50;99.90
12833;DHT22;6483;51.310;4.462;2022-09-09T00:16:22;13.40;99.90
12833;DHT22;6483;51.310;4.462;2022-09-09T00:19:05;13.40;99.90
12833;DHT22;6483;51.310;4.462;2022-09-09T00:21:43;13.30;99.90
12833;DHT22;6483;51.310;4.462;2022-09-09T00:24:43;13.30;99.90
12833;DHT22;6483;51.310;4.462;2022-09-09T00:27:48;13.30;99.90
12833;DHT22;6483;51.310;4.462;2022-09-09T00:30:20;13.30;99.90
12833;DHT22;6483;51.310;4.462;2022-09-09T00:33:05;13.30;99.90
12833;DHT22;6483;51.310;4.462;2022-09-09T00:35:57;13.50;99.90
12833;DHT22;6483;51.310;4.462;2022-09-09T00:38:47;13.50;99.90
12833;DHT22;6483;51.310;4.462;2022-09-09T00:50:01;13.50;99.90
12833;DHT22;6483;51.310;4.462;2022-09-09T00:52:52;13.40;99.90
12833;DHT22;6483;51.310;4.462;2022-09-09T00:55:45;13.50;99.90
12833;DHT22;6483;51.310;4.462;2022-09-09T00:58:12;13.50;99.90
12833;DHT22;6483;51.310;4.462;2022-09-09T01:06:17;13.50;99.90
12833;DHT22;6483;51.310;4.462;2022-09-09T01:12:02;13.50;99.90
12833;DHT22;6483;51.310;4.462;2022-09-09T01:14:43;13.40;99.90
12833;DHT22;6483;51.310;4.462;2022-09-09T01:17:21;13.40;99.90
12833;DHT22;6483;51.310;4.462;2022-09-09T01:28:19;13.40;99.90
12833;DHT22;6483;51.310;4.462;2022-09-09T01:30:47;13.40;99.90
12833;DHT22;6483;51.310;4.462;2022-09-09T01:33:17;13.40;99.90
12833;DHT22;6483;51.310;4.462;2022-09-09T01:35:50;13.30;99.90
12833;DHT22;6483;51.310;4.462;2022-09-09T01:38:20;13.30;99.90
12833;DHT22;6483;51.310;4.462;2022-09-09T01:40:53;13.20;99.90
12833;DHT22;6483;51.310;4.462;2022-09-09T01:43:23;13.20;99.90
12833;DHT22;6483;51.310;4.462;2022-09-09T01:45:53;13.20;99.90
12833;DHT22;6483;51.310;4.462;2022-09-09T01:48:24;13.20;99.90
12833;DHT22;6483;51.310;4.462;2022-09-09T01:50:50;13.10;99.90
12833;DHT22;6483;51.310;4.462;2022-09-09T01:53:22;13.10;99.90
12833;DHT22;6483;51.310;4.462;2022-09-09T01:56:16;13.10;99.90
12833;DHT22;6483;51.310;4.462;2022-09-09T02:03:52;13.00;99.90
12833;DHT22;6483;51.310;4.462;2022-09-09T02:08:58;13.10;99.90
12833;DHT22;6483;51.310;4.462;2022-09-09T02:11:27;13.10;99.90
12833;DHT22;6483;51.310;4.462;2022-09-09T02:22:53;13.10;99.90
12833;DHT22;6483;51.310;4.462;2022-09-09T02:25:26;13.10;99.90
12833;DHT22;6483;51.310;4.462;2022-09-09T02:27:53;13.10;99.90
12833;DHT22;6483;51.310;4.462;2022-09-09T02:30:19;13.00;99.90
12833;DHT22;6483;51.310;4.462;2022-09-09T02:32:48;13.00;99.90
12833;DHT22;6483;51.310;4.462;2022-09-09T02:35:24;12.90;99.90
12833;DHT22;6483;51.310;4.462;2022-09-09T02:37:55;13.00;99.90
12833;DHT22;6483;51.310;4.462;2022-09-09T02:40:22;12.90;99.90
12833;DHT22;6483;51.310;4.462;2022-09-09T02:42:49;12.90;99.90
12833;DHT22;6483;51.310;4.462;2022-09-09T02:45:20;12.80;99.90
12833;DHT22;6483;51.310;4.462;2022-09-09T02:53:49;12.90;99.90
12833;DHT22;6483;51.310;4.462;2022-09-09T02:56:21;12.80;99.90
12833;DHT22;6483;51.310;4.462;2022-09-09T02:58:49;12.90;99.90
12833;DHT22;6483;51.310;4.462;2022-09-09T03:01:17;12.90;99.90
12833;DHT22;6483;51.310;4.462;2022-09-09T03:03:43;13.00;99.90
12833;DHT22;6483;51.310;4.462;2022-09-09T03:06:09;12.90;99.90
12833;DHT22;6483;51.310;4.462;2022-09-09T03:08:40;12.90;99.90
12833;DHT22;6483;51.310;4.462;2022-09-09T03:11:06;12.90;99.90
12833;DHT22;6483;51.310;4.462;2022-09-09T03:13:32;13.00;99.90
12833;DHT22;6483;51.310;4.462;2022-09-09T03:16:01;12.90;99.90
12833;DHT22;6483;51.310;4.462;2022-09-09T03:18:29;12.90;99.90
12833;DHT22;6483;51.310;4.462;2022-09-09T03:20:55;12.90;99.90
12833;DHT22;6483;51.310;4.462;2022-09-09T03:23:22;12.90;99.90
12833;DHT22;6483;51.310;4.462;2022-09-09T03:25:49;12.90;99.90
12833;DHT22;6483;51.310;4.462;2022-09-09T03:28:19;13.00;99.90
12833;DHT22;6483;51.310;4.462;2022-09-09T03:30:49;12.90;99.90
12833;DHT22;6483;51.310;4.462;2022-09-09T03:33:14;12.90;99.90
12833;DHT22;6483;51.310;4.462;2022-09-09T03:35:45;12.90;99.90
12833;DHT22;6483;51.310;4.462;2022-09-09T03:38:13;13.00;99.90
12833;DHT22;6483;51.310;4.462;2022-09-09T03:40:38;13.00;99.90
12833;DHT22;6483;51.310;4.462;2022-09-09T03:43:05;13.00;99.90
12833;DHT22;6483;51.310;4.462;2022-09-09T03:45:33;13.00;99.90
12833;DHT22;6483;51.310;4.462;2022-09-09T03:47:59;13.10;99.90
12833;DHT22;6483;51.310;4.462;2022-09-09T03:50:25;13.10;99.90
12833;DHT22;6483;51.310;4.462;2022-09-09T03:52:51;13.10;99.90
12833;DHT22;6483;51.310;4.462;2022-09-09T03:55:16;13.10;99.90
12833;DHT22;6483;51.310;4.462;2022-09-09T03:57:43;13.10;99.90
12833;DHT22;6483;51.310;4.462;2022-09-09T04:00:09;13.10;99.90
12833;DHT22;6483;51.310;4.462;2022-09-09T04:02:35;13.20;99.90
12833;DHT22;6483;51.310;4.462;2022-09-09T04:05:01;13.20;99.90
12833;DHT22;6483;51.310;4.462;2022-09-09T04:07:29;13.30;99.90
12833;DHT22;6483;51.310;4.462;2022-09-09T04:09:55;13.30;99.90
12833;DHT22;6483;51.310;4.462;2022-09-09T04:12:22;13.40;99.90
12833;DHT22;6483;51.310;4.462;2022-09-09T04:14:54;13.30;99.90
12833;DHT22;6483;51.310;4.462;2022-09-09T04:17:19;13.40;99.90
12833;DHT22;6483;51.310;4.462;2022-09-09T04:19:45;13.40;99.90
12833;DHT22;6483;51.310;4.462;2022-09-09T04:22:11;13.40;99.90
12833;DHT22;6483;51.310;4.462;2022-09-09T04:24:40;13.40;99.90
12833;DHT22;6483;51.310;4.462;2022-09-09T04:27:06;13.40;99.90
12833;DHT22;6483;51.310;4.462;2022-09-09T04:29:32;11.80;99.90
12833;DHT22;6483;51.310;4.462;2022-09-09T04:32:01;13.50;99.90
12833;DHT22;6483;51.310;4.462;2022-09-09T04:34:33;13.40;99.90
12833;DHT22;6483;51.310;4.462;2022-09-09T04:36:59;13.40;99.90
12833;DHT22;6483;51.310;4.462;2022-09-09T04:39:25;13.40;99.90
12833;DHT22;6483;51.310;4.462;2022-09-09T04:41:51;13.50;99.90
12833;DHT22;6483;51.310;4.462;2022-09-09T04:44:18;13.50;99.90
12833;DHT22;6483;51.310;4.462;2022-09-09T04:46:44;13.50;99.90
12833;DHT22;6483;51.310;4.462;2022-09-09T04:49:13;13.40;99.90
12833;DHT22;6483;51.310;4.462;2022-09-09T04:51:39;13.30;99.90
12833;DHT22;6483;51.310;4.462;2022-09-09T04:54:04;13.40;99.90
12833;DHT22;6483;51.310;4.462;2022-09-09T04:56:50;13.50;99.90
12833;DHT22;6483;51.310;4.462;2022-09-09T04:59:16;13.50;99.90
12833;DHT22;6483;51.310;4.462;2022-09-09T05:01:48;13.60;99.90
12833;DHT22;6483;51.310;4.462;2022-09-09T05:04:14;13.60;99.90
12833;DHT22;6483;51.310;4.462;2022-09-09T05:06:44;13.60;99.90
12833;DHT22;6483;51.310;4.462;2022-09-09T05:09:11;13.60;99.90
12833;DHT22;6483;51.310;4.462;2022-09-09T05:11:36;13.60;99.90
12833;DHT22;6483;51.310;4.462;2022-09-09T05:14:04;13.60;99.90
12833;DHT22;6483;51.310;4.462;2022-09-09T05:16:36;13.60;99.90
12833;DHT22;6483;51.310;4.462;2022-09-09T05:19:02;13.60;99.90
12833;DHT22;6483;51.310;4.462;2022-09-09T05:21:28;13.70;99.90
12833;DHT22;6483;51.310;4.462;2022-09-09T05:23:58;13.70;99.90
12833;DHT22;6483;51.310;4.462;2022-09-09T05:26:32;13.80;99.90
12833;DHT22;6483;51.310;4.462;2022-09-09T05:28:58;13.80;99.90
12833;DHT22;6483;51.310;4.462;2022-09-09T05:31:25;13.80;99.90
12833;DHT22;6483;51.310;4.462;2022-09-09T05:33:53;13.90;99.90
12833;DHT22;6483;51.310;4.462;2022-09-09T05:36:23;14.00;99.90
12833;DHT22;6483;51.310;4.462;2022-09-09T05:38:49;14.20;99.90
12833;DHT22;6483;51.310;4.462;2022-09-09T05:41:16;14.30;99.90
12833;DHT22;6483;51.310;4.462;2022-09-09T05:43:43;14.40;99.90
12833;DHT22;6483;51.310;4.462;2022-09-09T05:46:33;14.40;99.90
12833;DHT22;6483;51.310;4.462;2022-09-09T05:49:02;14.50;99.90
12833;DHT22;6483;51.310;4.462;2022-09-09T05:51:29;14.50;99.90
12833;DHT22;6483;51.310;4.462;2022-09-09T05:53:55;14.60;99.90
12833;DHT22;6483;51.310;4.462;2022-09-09T05:56:26;14.70;99.90
12833;DHT22;6483;51.310;4.462;2022-09-09T05:58:52;14.70;99.90
12833;DHT22;6483;51.310;4.462;2022-09-09T06:01:33;14.90;99.90
12833;DHT22;6483;51.310;4.462;2022-09-09T06:04:03;14.90;99.90
12833;DHT22;6483;51.310;4.462;2022-09-09T06:06:37;14.90;99.90
12833;DHT22;6483;51.310;4.462;2022-09-09T06:09:06;14.90;99.90
12833;DHT22;6483;51.310;4.462;2022-09-09T06:11:39;15.00;99.90
12833;DHT22;6483;51.310;4.462;2022-09-09T06:14:08;15.10;99.90
12833;DHT22;6483;51.310;4.462;2022-09-09T06:16:37;15.00;99.90
12833;DHT22;6483;51.310;4.462;2022-09-09T06:19:04;15.10;99.90
12833;DHT22;6483;51.310;4.462;2022-09-09T06:21:31;15.20;99.90
12833;DHT22;6483;51.310;4.462;2022-09-09T06:23:58;15.20;99.90
12833;DHT22;6483;51.310;4.462;2022-09-09T06:26:30;15.30;99.90
12833;DHT22;6483;51.310;4.462;2022-09-09T06:28:56;15.30;99.90
12833;DHT22;6483;51.310;4.462;2022-09-09T06:31:25;15.40;99.90
12833;DHT22;6483;51.310;4.462;2022-09-09T06:33:54;15.40;99.90
12833;DHT22;6483;51.310;4.462;2022-09-09T06:36:26;15.50;99.90
12833;DHT22;6483;51.310;4.462;2022-09-09T06:38:52;15.50;99.90
12833;DHT22;6483;51.310;4.462;2022-09-09T06:41:19;15.70;99.90
12833;DHT22;6483;51.310;4.462;2022-09-09T06:43:46;15.70;99.90
12833;DHT22;6483;51.310;4.462;2022-09-09T06:46:20;15.70;99.90
12833;DHT22;6483;51.310;4.462;2022-09-09T06:48:47;15.80;99.90
12833;DHT22;6483;51.310;4.462;2022-09-09T06:51:21;15.80;99.90
12833;DHT22;6483;51.310;4.462;2022-09-09T06:53:50;15.70;99.90
12833;DHT22;6483;51.310;4.462;2022-09-09T06:56:27;15.80;99.90
12833;DHT22;6483;51.310;4.462;2022-09-09T06:58:55;15.80;99.90
12833;DHT22;6483;51.310;4.462;2022-09-09T07:01:32;15.80;99.90
12833;DHT22;6483;51.310;4.462;2022-09-09T07:04:00;16.10;99.90
12833;DHT22;6483;51.310;4.462;2022-09-09T07:06:38;16.20;99.90
12833;DHT22;6483;51.310;4.462;2022-09-09T07:09:06;16.30;99.90
12833;DHT22;6483;51.310;4.462;2022-09-09T07:11:54;16.30;99.90
12833;DHT22;6483;51.310;4.462;2022-09-09T07:14:25;16.30;99.90
12833;DHT22;6483;51.310;4.462;2022-09-09T07:16:50;16.30;99.90
12833;DHT22;6483;51.310;4.462;2022-09-09T07:19:22;16.50;99.90
12833;DHT22;6483;51.310;4.462;2022-09-09T07:21:48;16.70;99.90
12833;DHT22;6483;51.310;4.462;2022-09-09T07:24:17;16.70;99.90
12833;DHT22;6483;51.310;4.462;2022-09-09T07:26:46;17.00;99.90
12833;DHT22;6483;51.310;4.462;2022-09-09T07:29:12;16.90;99.90
12833;DHT22;6483;51.310;4.462;2022-09-09T07:31:39;16.60;99.90
12833;DHT22;6483;51.310;4.462;2022-09-09T07:34:06;16.50;99.90
12833;DHT22;6483;51.310;4.462;2022-09-09T07:36:37;16.30;99.90
12833;DHT22;6483;51.310;4.462;2022-09-09T07:39:06;16.20;99.90
12833;DHT22;6483;51.310;4.462;2022-09-09T07:41:47;16.20;99.90
12833;DHT22;6483;51.310;4.462;2022-09-09T07:44:32;16.10;99.90
12833;DHT22;6483;51.310;4.462;2022-09-09T07:47:03;16.10;99.90
12833;DHT22;6483;51.310;4.462;2022-09-09T07:49:29;16.20;99.90
12833;DHT22;6483;51.310;4.462;2022-09-09T07:52:01;16.30;99.90
12833;DHT22;6483;51.310;4.462;2022-09-09T07:54:27;16.50;99.90
12833;DHT22;6483;51.310;4.462;2022-09-09T07:56:56;16.70;99.90
12833;DHT22;6483;51.310;4.462;2022-09-09T07:59:24;16.80;99.90
12833;DHT22;6483;51.310;4.462;2022-09-09T08:01:51;16.90;99.90
12833;DHT22;6483;51.310;4.462;2022-09-09T08:04:24;16.90;99.90
12833;DHT22;6483;51.310;4.462;2022-09-09T08:06:59;16.90;99.90
12833;DHT22;6483;51.310;4.462;2022-09-09T08:09:27;16.90;99.90
12833;DHT22;6483;51.310;4.462;2022-09-09T08:11:55;17.10;99.90
12833;DHT22;6483;51.310;4.462;2022-09-09T08:14:26;17.30;99.90
12833;DHT22;6483;51.310;4.462;2022-09-09T08:16:55;17.20;99.90
12833;DHT22;6483;51.310;4.462;2022-09-09T08:19:23;17.20;99.90
12833;DHT22;6483;51.310;4.462;2022-09-09T08:21:52;17.10;99.90
12833;DHT22;6483;51.310;4.462;2022-09-09T08:24:23;17.10;99.90
12833;DHT22;6483;51.310;4.462;2022-09-09T08:26:52;17.00;99.90
12833;DHT22;6483;51.310;4.462;2022-09-09T08:29:19;17.00;99.90
12833;DHT22;6483;51.310;4.462;2022-09-09T08:31:50;17.00;99.90
12833;DHT22;6483;51.310;4.462;2022-09-09T08:34:17;17.10;99.90
12833;DHT22;6483;51.310;4.462;2022-09-09T08:36:48;17.20;99.90
12833;DHT22;6483;51.310;4.462;2022-09-09T08:39:17;17.30;99.90
12833;DHT22;6483;51.310;4.462;2022-09-09T08:42:06;17.30;99.90
12833;DHT22;6483;51.310;4.462;2022-09-09T08:53:20;17.30;99.90
12833;DHT22;6483;51.310;4.462;2022-09-09T08:55:58;17.40;99.90
12833;DHT22;6483;51.310;4.462;2022-09-09T08:58:50;17.40;99.90
12833;DHT22;6483;51.310;4.462;2022-09-09T09:01:36;17.40;99.90
12833;DHT22;6483;51.310;4.462;2022-09-09T09:12:40;17.50;99.90
12833;DHT22;6483;51.310;4.462;2022-09-09T09:15:27;17.50;99.90
12833;DHT22;6483;51.310;4.462;2022-09-09T09:18:00;17.40;99.90
12833;DHT22;6483;51.310;4.462;2022-09-09T09:20:49;17.30;99.90
12833;DHT22;6483;51.310;4.462;2022-09-09T09:23:30;17.10;99.90
12833;DHT22;6483;51.310;4.462;2022-09-09T09:26:01;16.90;99.90
12833;DHT22;6483;51.310;4.462;2022-09-09T09:28:32;16.80;99.90
12833;DHT22;6483;51.310;4.462;2022-09-09T09:31:10;16.80;99.90
12833;DHT22;6483;51.310;4.462;2022-09-09T09:36:18;16.70;99.90
12833;DHT22;6483;51.310;4.462;2022-09-09T09:38:58;16.80;99.90
12833;DHT22;6483;51.310;4.462;2022-09-09T09:44:04;16.90;99.90
12833;DHT22;6483;51.310;4.462;2022-09-09T09:46:31;16.80;99.90
12833;DHT22;6483;51.310;4.462;2022-09-09T09:49:05;16.70;99.90
12833;DHT22;6483;51.310;4.462;2022-09-09T09:51:34;16.60;99.90
12833;DHT22;6483;51.310;4.462;2022-09-09T09:54:33;16.40;99.90
12833;DHT22;6483;51.310;4.462;2022-09-09T09:57:14;16.20;99.90
12833;DHT22;6483;51.310;4.462;2022-09-09T09:59:41;16.10;99.90
12833;DHT22;6483;51.310;4.462;2022-09-09T10:02:21;16.20;99.90
12833;DHT22;6483;51.310;4.462;2022-09-09T10:05:04;16.20;99.90
12833;DHT22;6483;51.310;4.462;2022-09-09T10:07:30;16.20;99.90
12833;DHT22;6483;51.310;4.462;2022-09-09T10:09:57;16.20;99.90
12833;DHT22;6483;51.310;4.462;2022-09-09T10:13:03;16.10;99.90
12833;DHT22;6483;51.310;4.462;2022-09-09T10:21:25;16.10;99.90
12833;DHT22;6483;51.310;4.462;2022-09-09T10:24:03;16.10;99.90
12833;DHT22;6483;51.310;4.462;2022-09-09T10:30:21;16.60;99.90
12833;DHT22;6483;51.310;4.462;2022-09-09T10:33:10;17.20;99.90
12833;DHT22;6483;51.310;4.462;2022-09-09T10:39:03;17.50;99.90
12833;DHT22;6483;51.310;4.462;2022-09-09T10:47:34;17.90;99.90
12833;DHT22;6483;51.310;4.462;2022-09-09T10:53:36;18.60;99.90
12833;DHT22;6483;51.310;4.462;2022-09-09T10:56:16;18.70;99.90
12833;DHT22;6483;51.310;4.462;2022-09-09T10:59:04;18.60;99.90
12833;DHT22;6483;51.310;4.462;2022-09-09T11:01:53;18.60;99.90
12833;DHT22;6483;51.310;4.462;2022-09-09T11:07:22;18.40;99.90
12833;DHT22;6483;51.310;4.462;2022-09-09T11:09:54;18.40;99.90
12833;DHT22;6483;51.310;4.462;2022-09-09T11:12:23;18.40;99.90
12833;DHT22;6483;51.310;4.462;2022-09-09T11:14:56;18.60;99.90
12833;DHT22;6483;51.310;4.462;2022-09-09T11:17:43;18.90;99.90
12833;DHT22;6483;51.310;4.462;2022-09-09T11:20:16;19.50;99.90
12833;DHT22;6483;51.310;4.462;2022-09-09T11:23:11;19.90;99.90
12833;DHT22;6483;51.310;4.462;2022-09-09T11:25:41;20.00;99.90
12833;DHT22;6483;51.310;4.462;2022-09-09T11:31:43;20.40;99.90
12833;DHT22;6483;51.310;4.462;2022-09-09T11:37:17;19.90;99.90
12833;DHT22;6483;51.310;4.462;2022-09-09T11:40:22;19.80;99.90
12833;DHT22;6483;51.310;4.462;2022-09-09T11:43:13;19.40;99.90
12833;DHT22;6483;51.310;4.462;2022-09-09T11:46:00;19.30;99.90
12833;DHT22;6483;51.310;4.462;2022-09-09T11:48:43;19.50;99.90
12833;DHT22;6483;51.310;4.462;2022-09-09T11:51:13;20.10;99.90
12833;DHT22;6483;51.310;4.462;2022-09-09T11:53:56;20.00;99.90
12833;DHT22;6483;51.310;4.462;2022-09-09T11:57:04;20.80;99.90
12833;DHT22;6483;51.310;4.462;2022-09-09T11:59:52;20.80;99.90
12833;DHT22;6483;51.310;4.462;2022-09-09T12:02:50;20.50;99.90
12833;DHT22;6483;51.310;4.462;2022-09-09T12:05:23;20.30;99.90
12833;DHT22;6483;51.310;4.462;2022-09-09T12:07:56;20.00;99.90
12833;DHT22;6483;51.310;4.462;2022-09-09T12:10:38;19.90;99.90
12833;DHT22;6483;51.310;4.462;2022-09-09T12:15:59;20.10;99.90
12833;DHT22;6483;51.310;4.462;2022-09-09T12:18:36;20.40;99.90
12833;DHT22;6483;51.310;4.462;2022-09-09T12:21:21;20.30;99.90
12833;DHT22;6483;51.310;4.462;2022-09-09T12:24:31;20.50;99.90
12833;DHT22;6483;51.310;4.462;2022-09-09T12:27:32;20.80;99.90
12833;DHT22;6483;51.310;4.462;2022-09-09T12:30:10;20.90;99.90
12833;DHT22;6483;51.310;4.462;2022-09-09T12:33:06;20.60;99.90
12833;DHT22;6483;51.310;4.462;2022-09-09T12:35:40;20.50;99.90
12833;DHT22;6483;51.310;4.462;2022-09-09T12:38:22;20.10;99.90
12833;DHT22;6483;51.310;4.462;2022-09-09T12:41:24;19.90;99.90
12833;DHT22;6483;51.310;4.462;2022-09-09T12:43:51;19.60;99.90
12833;DHT22;6483;51.310;4.462;2022-09-09T12:48:57;19.50;99.90
12833;DHT22;6483;51.310;4.462;2022-09-09T12:51:27;19.50;99.90
12833;DHT22;6483;51.310;4.462;2022-09-09T12:53:54;19.50;99.90
12833;DHT22;6483;51.310;4.462;2022-09-09T12:56:44;19.50;99.90
12833;DHT22;6483;51.310;4.462;2022-09-09T12:59:38;20.00;99.90
12833;DHT22;6483;51.310;4.462;2022-09-09T13:02:24;20.40;99.90
12833;DHT22;6483;51.310;4.462;2022-09-09T13:05:15;20.60;99.90
12833;DHT22;6483;51.310;4.462;2022-09-09T13:07:41;21.40;99.90
12833;DHT22;6483;51.310;4.462;2022-09-09T13:10:11;21.50;99.90
12833;DHT22;6483;51.310;4.462;2022-09-09T13:12:37;21.60;99.90
12833;DHT22;6483;51.310;4.462;2022-09-09T13:15:03;21.50;99.90
12833;DHT22;6483;51.310;4.462;2022-09-09T13:17:29;21.80;99.90
12833;DHT22;6483;51.310;4.462;2022-09-09T13:20:17;21.40;99.90
12833;DHT22;6483;51.310;4.462;2022-09-09T13:22:44;20.90;99.90
12833;DHT22;6483;51.310;4.462;2022-09-09T13:27:50;20.30;99.90
12833;DHT22;6483;51.310;4.462;2022-09-09T13:30:36;20.20;99.90
12833;DHT22;6483;51.310;4.462;2022-09-09T13:36:01;20.40;99.90
12833;DHT22;6483;51.310;4.462;2022-09-09T13:41:09;20.70;99.90
12833;DHT22;6483;51.310;4.462;2022-09-09T13:43:45;20.40;99.90
12833;DHT22;6483;51.310;4.462;2022-09-09T13:46:37;19.70;99.90
12833;DHT22;6483;51.310;4.462;2022-09-09T13:51:49;19.00;99.90
12833;DHT22;6483;51.310;4.462;2022-09-09T13:54:19;18.90;99.90
12833;DHT22;6483;51.310;4.462;2022-09-09T13:56:46;18.80;99.90
12833;DHT22;6483;51.310;4.462;2022-09-09T13:59:14;18.60;99.90
12833;DHT22;6483;51.310;4.462;2022-09-09T14:01:40;18.10;99.90
12833;DHT22;6483;51.310;4.462;2022-09-09T14:04:07;17.50;99.90
12833;DHT22;6483;51.310;4.462;2022-09-09T14:06:34;17.20;99.90
12833;DHT22;6483;51.310;4.462;2022-09-09T14:09:05;17.20;99.90
12833;DHT22;6483;51.310;4.462;2022-09-09T14:11:30;17.40;99.90
12833;DHT22;6483;51.310;4.462;2022-09-09T14:13:56;17.80;99.90
12833;DHT22;6483;51.310;4.462;2022-09-09T14:16:22;18.60;99.90
12833;DHT22;6483;51.310;4.462;2022-09-09T14:18:48;20.00;99.90
12833;DHT22;6483;51.310;4.462;2022-09-09T14:21:16;20.10;99.90
12833;DHT22;6483;51.310;4.462;2022-09-09T14:23:44;20.00;99.90
12833;DHT22;6483;51.310;4.462;2022-09-09T14:26:10;20.70;99.90
12833;DHT22;6483;51.310;4.462;2022-09-09T14:28:39;21.20;99.90
12833;DHT22;6483;51.310;4.462;2022-09-09T14:31:05;21.10;99.90
12833;DHT22;6483;51.310;4.462;2022-09-09T14:33:31;20.90;99.90
12833;DHT22;6483;51.310;4.462;2022-09-09T14:36:02;20.50;99.90
12833;DHT22;6483;51.310;4.462;2022-09-09T14:38:30;20.20;99.90
12833;DHT22;6483;51.310;4.462;2022-09-09T14:40:57;19.80;99.90
12833;DHT22;6483;51.310;4.462;2022-09-09T14:43:25;19.60;99.90
12833;DHT22;6483;51.310;4.462;2022-09-09T14:45:52;19.60;99.90
12833;DHT22;6483;51.310;4.462;2022-09-09T14:48:20;19.50;99.90
12833;DHT22;6483;51.310;4.462;2022-09-09T14:50:46;19.70;99.90
12833;DHT22;6483;51.310;4.462;2022-09-09T14:53:16;19.60;99.90
12833;DHT22;6483;51.310;4.462;2022-09-09T14:55:42;19.40;99.90
12833;DHT22;6483;51.310;4.462;2022-09-09T14:58:08;19.30;99.90
12833;DHT22;6483;51.310;4.462;2022-09-09T15:00:36;19.10;99.90
12833;DHT22;6483;51.310;4.462;2022-09-09T15:03:05;18.90;99.90
12833;DHT22;6483;51.310;4.462;2022-09-09T15:05:31;18.50;99.90
12833;DHT22;6483;51.310;4.462;2022-09-09T15:08:00;18.20;99.90
12833;DHT22;6483;51.310;4.462;2022-09-09T15:10:25;17.80;99.90
12833;DHT22;6483;51.310;4.462;2022-09-09T15:12:52;17.60;99.90
12833;DHT22;6483;51.310;4.462;2022-09-09T15:15:20;17.50;99.90
12833;DHT22;6483;51.310;4.462;2022-09-09T15:17:47;17.40;99.90
12833;DHT22;6483;51.310;4.462;2022-09-09T15:20:16;17.50;99.90
12833;DHT22;6483;51.310;4.462;2022-09-09T15:22:45;17.40;99.90
12833;DHT22;6483;51.310;4.462;2022-09-09T15:25:10;17.50;99.90
12833;DHT22;6483;51.310;4.462;2022-09-09T15:27:37;17.50;99.90
12833;DHT22;6483;51.310;4.462;2022-09-09T15:30:09;17.50;99.90
12833;DHT22;6483;51.310;4.462;2022-09-09T15:32:35;17.50;99.90
12833;DHT22;6483;51.310;4.462;2022-09-09T15:35:07;17.50;99.90
12833;DHT22;6483;51.310;4.462;2022-09-09T15:37:33;17.60;99.90
12833;DHT22;6483;51.310;4.462;2022-09-09T15:40:08;17.70;99.90
12833;DHT22;6483;51.310;4.462;2022-09-09T15:42:33;17.80;99.90
12833;DHT22;6483;51.310;4.462;2022-09-09T15:45:02;17.70;99.90
12833;DHT22;6483;51.310;4.462;2022-09-09T15:47:33;17.70;99.90
12833;DHT22;6483;51.310;4.462;2022-09-09T15:50:01;17.70;99.90
12833;DHT22;6483;51.310;4.462;2022-09-09T15:52:32;17.70;99.90
12833;DHT22;6483;51.310;4.462;2022-09-09T15:55:04;17.50;99.90
12833;DHT22;6483;51.310;4.462;2022-09-09T15:57:30;17.40;99.90
12833;DHT22;6483;51.310;4.462;2022-09-09T15:59:55;17.20;99.90
12833;DHT22;6483;51.310;4.462;2022-09-09T16:02:24;17.10;99.90
12833;DHT22;6483;51.310;4.462;2022-09-09T16:04:49;17.10;99.90
12833;DHT22;6483;51.310;4.462;2022-09-09T16:07:15;17.10;99.90
12833;DHT22;6483;51.310;4.462;2022-09-09T16:09:41;17.20;99.90
12833;DHT22;6483;51.310;4.462;2022-09-09T16:12:09;17.50;99.90
12833;DHT22;6483;51.310;4.462;2022-09-09T16:14:38;17.90;99.90
12833;DHT22;6483;51.310;4.462;2022-09-09T16:17:05;18.40;99.90
12833;DHT22;6483;51.310;4.462;2022-09-09T16:19:35;18.90;99.90
12833;DHT22;6483;51.310;4.462;2022-09-09T16:22:03;19.20;99.90
12833;DHT22;6483;51.310;4.462;2022-09-09T16:24:32;19.20;99.90
12833;DHT22;6483;51.310;4.462;2022-09-09T16:27:01;19.20;99.90
12833;DHT22;6483;51.310;4.462;2022-09-09T16:29:27;19.10;99.90
12833;DHT22;6483;51.310;4.462;2022-09-09T16:31:53;19.10;99.90
12833;DHT22;6483;51.310;4.462;2022-09-09T16:34:20;19.00;99.90
12833;DHT22;6483;51.310;4.462;2022-09-09T16:36:47;19.00;99.90
12833;DHT22;6483;51.310;4.462;2022-09-09T16:39:16;18.90;99.90
12833;DHT22;6483;51.310;4.462;2022-09-09T16:41:43;18.80;99.90
12833;DHT22;6483;51.310;4.462;2022-09-09T16:44:11;18.60;99.90
12833;DHT22;6483;51.310;4.462;2022-09-09T16:46:40;18.40;99.90
12833;DHT22;6483;51.310;4.462;2022-09-09T16:49:09;18.30;99.90
12833;DHT22;6483;51.310;4.462;2022-09-09T16:51:44;18.20;99.90
12833;DHT22;6483;51.310;4.462;2022-09-09T16:54:10;18.20;99.90
12833;DHT22;6483;51.310;4.462;2022-09-09T16:56:40;18.10;99.90
12833;DHT22;6483;51.310;4.462;2022-09-09T16:59:14;18.10;99.90
12833;DHT22;6483;51.310;4.462;2022-09-09T17:01:42;18.00;99.90
12833;DHT22;6483;51.310;4.462;2022-09-09T17:04:14;18.00;99.90
12833;DHT22;6483;51.310;4.462;2022-09-09T17:06:45;17.90;99.90
12833;DHT22;6483;51.310;4.462;2022-09-09T17:09:11;17.80;99.90
12833;DHT22;6483;51.310;4.462;2022-09-09T17:11:39;17.80;99.90
12833;DHT22;6483;51.310;4.462;2022-09-09T17:14:10;17.70;99.90
12833;DHT22;6483;51.310;4.462;2022-09-09T17:16:37;17.60;99.90
12833;DHT22;6483;51.310;4.462;2022-09-09T17:19:05;17.60;99.90
12833;DHT22;6483;51.310;4.462;2022-09-09T17:21:32;17.60;99.90
12833;DHT22;6483;51.310;4.462;2022-09-09T17:23:58;17.70;99.90
12833;DHT22;6483;51.310;4.462;2022-09-09T17:26:27;17.60;99.90
12833;DHT22;6483;51.310;4.462;2022-09-09T17:29:00;17.50;99.90
12833;DHT22;6483;51.310;4.462;2022-09-09T17:31:27;17.30;99.90
12833;DHT22;6483;51.310;4.462;2022-09-09T17:33:55;17.20;99.90
12833;DHT22;6483;51.310;4.462;2022-09-09T17:36:30;17.00;99.90
12833;DHT22;6483;51.310;4.462;2022-09-09T17:38:56;16.80;99.90
12833;DHT22;6483;51.310;4.462;2022-09-09T17:41:31;16.60;99.90
12833;DHT22;6483;51.310;4.462;2022-09-09T17:43:58;16.60;99.90
12833;DHT22;6483;51.310;4.462;2022-09-09T17:46:29;16.50;99.90
12833;DHT22;6483;51.310;4.462;2022-09-09T17:48:58;16.40;99.90
12833;DHT22;6483;51.310;4.462;2022-09-09T17:51:25;16.40;99.90
12833;DHT22;6483;51.310;4.462;2022-09-09T17:53:55;16.30;99.90
12833;DHT22;6483;51.310;4.462;2022-09-09T17:56:24;16.30;99.90
12833;DHT22;6483;51.310;4.462;2022-09-09T17:58:51;16.20;99.90
12833;DHT22;6483;51.310;4.462;2022-09-09T18:01:22;16.20;99.90
12833;DHT22;6483;51.310;4.462;2022-09-09T18:03:49;16.30;99.90
12833;DHT22;6483;51.310;4.462;2022-09-09T18:06:20;16.30;99.90
12833;DHT22;6483;51.310;4.462;2022-09-09T18:08:54;16.30;99.90
12833;DHT22;6483;51.310;4.462;2022-09-09T18:11:22;16.20;99.90
12833;DHT22;6483;51.310;4.462;2022-09-09T18:13:57;16.20;99.90
12833;DHT22;6483;51.310;4.462;2022-09-09T18:16:26;16.20;99.90